Terminal Aerodrome Forecast
Issued by NWS Duluth, MN

Home | Current Version | Previous Version | Text Only | Print | Product List | Glossary On
Versions: 1 2 3 4 5 6 7 8 9 10 11 12 13 14 15 16 17 18 19 20 21 22 23 24 25 26 27 28 29 30 31 32 33 34 35 36 37 38 39
000
FTUS43 KDLH 190200 AAA
TAFDLH
TAF AMD
KDLH 190220Z 1902/1924 11010KT P6SM OVC003
     FM190500 16010KT P6SM SCT003 SCT250 WS020/20040KT
     FM190900 19012KT P6SM BKN250 WS020/21045KT
     FM191400 20014G23KT P6SM VCSH SCT015 BKN100
     FM191800 20015G28KT P6SM -SHRA OVC025
     FM192300 21010KT P6SM BKN025=

USA.gov is the U.S. government's official web portal to all federal, state and local government web resources and services.